Little Water, New Mexico
Current Conditions -  °F | °C
As of 9:53 AM on Thursday 27 Nov 2014 (Local Time) from KFMN Reporting Station
Clear Clear  
Wind Chill: 32°   Ceiling: Unl
Heat Index: 38°   Visibility: 10mi
Dew Point: 23°   Wind: 8mph
Humidity: 55%   Direction: 110°ESE
Pressure: 30.49"   Gusts: NA
Location:  36.3945°N, 108.769°W
Report Text: KFMN 271653Z 11007KT 10SM CLR 03/M05 A3049 RMK AO2 SLP333 T00331050
Loading
Personal Weather Stations






























Interactive Weather Map New forecast layout! Learn more

10-Day Weather Forecast

Advertisements
Track Severe Weather on mobile